createdAt,value
2022-11-27T00:01:26.956Z,80.20
2022-11-27T00:03:55.223Z,77.40
2022-11-27T00:06:24.345Z,79.10
2022-11-27T00:08:51.500Z,77.50
2022-11-27T00:11:23.371Z,75.70
2022-11-27T00:13:50.735Z,78.00
2022-11-27T00:16:18.398Z,75.60
2022-11-27T00:18:45.647Z,76.40
2022-11-27T00:21:15.147Z,74.80
2022-11-27T00:23:42.432Z,75.50
2022-11-27T00:26:09.722Z,75.70
2022-11-27T00:28:36.700Z,77.70
2022-11-27T00:31:06.962Z,77.00
2022-11-27T00:33:33.870Z,76.30
2022-11-27T00:36:07.846Z,77.50
2022-11-27T00:38:38.787Z,76.60
2022-11-27T00:41:06.957Z,76.60
2022-11-27T00:43:43.612Z,75.50
2022-11-27T00:46:12.013Z,75.70
2022-11-27T00:48:38.706Z,75.20
2022-11-27T00:51:08.317Z,75.50
2022-11-27T00:53:35.429Z,76.20
2022-11-27T00:56:02.346Z,75.20
2022-11-27T00:58:30.651Z,73.60
2022-11-27T01:00:58.909Z,74.40
2022-11-27T01:03:27.761Z,74.40
2022-11-27T01:06:05.666Z,71.20
2022-11-27T01:08:33.140Z,72.80
2022-11-27T01:11:00.184Z,72.40
2022-11-27T01:13:29.776Z,73.80
2022-11-27T01:16:05.569Z,72.80
2022-11-27T01:18:33.780Z,73.10
2022-11-27T01:21:00.496Z,72.90
2022-11-27T01:23:27.383Z,71.70
2022-11-27T01:25:54.147Z,70.30
2022-11-27T01:28:21.937Z,70.20
2022-11-27T01:30:48.871Z,70.50
2022-11-27T01:33:15.787Z,70.10
2022-11-27T01:35:42.505Z,72.20
2022-11-27T01:38:09.276Z,70.30
2022-11-27T01:40:36.012Z,68.90
2022-11-27T01:43:02.705Z,69.90
2022-11-27T01:45:29.586Z,71.60
2022-11-27T01:47:59.478Z,70.00
2022-11-27T01:50:30.575Z,68.10
2022-11-27T01:53:06.122Z,68.50
2022-11-27T01:55:49.385Z,69.90
2022-11-27T01:58:23.424Z,70.00
2022-11-27T02:00:50.177Z,69.10
2022-11-27T02:03:17.012Z,69.40
2022-11-27T02:05:43.785Z,68.10
2022-11-27T02:08:13.077Z,67.80
2022-11-27T02:11:01.817Z,68.40
2022-11-27T02:13:50.324Z,66.80
2022-11-27T02:16:25.039Z,69.20
2022-11-27T02:19:23.627Z,69.30
2022-11-27T02:21:58.903Z,67.70
2022-11-27T02:24:36.043Z,66.50
2022-11-27T02:27:05.484Z,66.90
2022-11-27T02:29:35.665Z,63.80
2022-11-27T02:32:19.590Z,64.70
2022-11-27T02:34:48.095Z,63.00
2022-11-27T02:37:24.106Z,61.60
2022-11-27T02:40:11.087Z,62.00
2022-11-27T02:42:57.847Z,62.30
2022-11-27T02:45:52.435Z,61.90
2022-11-27T02:48:21.571Z,61.20
2022-11-27T02:50:49.433Z,62.90
2022-11-27T02:53:21.244Z,63.10
2022-11-27T02:55:49.288Z,64.80
2022-11-27T02:58:22.972Z,63.10
2022-11-27T03:00:50.685Z,61.20
2022-11-27T03:03:25.314Z,62.90
2022-11-27T03:05:55.161Z,62.40
2022-11-27T03:08:54.365Z,61.80
2022-11-27T03:11:21.423Z,62.30
2022-11-27T03:13:53.154Z,59.70
2022-11-27T03:16:29.951Z,60.60
2022-11-27T03:19:11.896Z,60.60
2022-11-27T03:21:41.369Z,63.20
2022-11-27T03:24:09.169Z,61.80
2022-11-27T03:26:36.770Z,62.70
2022-11-27T03:29:07.027Z,61.70
2022-11-27T03:31:33.920Z,61.20
2022-11-27T03:34:01.176Z,61.10
2022-11-27T03:36:27.947Z,61.60
2022-11-27T03:38:55.685Z,59.80
2022-11-27T03:41:22.509Z,60.30
2022-11-27T03:44:02.574Z,59.40
2022-11-27T03:46:52.304Z,59.30
2022-11-27T03:49:33.805Z,59.00
2022-11-27T03:52:13.035Z,60.40
2022-11-27T03:55:06.503Z,59.70
2022-11-27T03:57:43.093Z,60.00
2022-11-27T04:00:10.777Z,59.70
2022-11-27T04:02:46.464Z,57.70
2022-11-27T04:05:14.015Z,60.20
2022-11-27T04:07:40.876Z,59.90
2022-11-27T04:10:08.583Z,59.70
2022-11-27T04:12:35.877Z,59.70
2022-11-27T04:15:02.739Z,58.30
2022-11-27T04:17:29.639Z,59.50
2022-11-27T04:19:56.419Z,59.80
2022-11-27T04:22:23.239Z,57.90
2022-11-27T04:24:49.984Z,59.80
2022-11-27T04:27:16.802Z,58.50
2022-11-27T04:29:43.559Z,59.80
2022-11-27T04:32:10.277Z,57.80
2022-11-27T04:34:37.043Z,59.30
2022-11-27T04:37:03.826Z,59.20
2022-11-27T04:39:30.849Z,59.50
2022-11-27T04:41:57.541Z,57.90
2022-11-27T04:44:24.237Z,57.90
2022-11-27T04:46:51.081Z,58.20
2022-11-27T04:49:17.779Z,58.20
2022-11-27T04:51:44.630Z,58.50
2022-11-27T04:54:11.866Z,58.80
2022-11-27T04:56:38.570Z,58.40
2022-11-27T04:59:05.812Z,59.00
2022-11-27T05:01:32.517Z,59.00
2022-11-27T05:03:59.272Z,57.40
2022-11-27T05:06:25.945Z,58.20
2022-11-27T05:08:59.665Z,57.20
2022-11-27T05:11:26.641Z,58.50
2022-11-27T05:14:13.376Z,57.60
2022-11-27T05:16:53.432Z,58.60
2022-11-27T05:19:21.875Z,58.60
2022-11-27T05:21:49.471Z,59.30
2022-11-27T05:24:17.230Z,58.90
2022-11-27T05:26:46.174Z,59.40
2022-11-27T13:00:44.736Z,76.30
2022-11-27T13:03:21.645Z,74.20
2022-11-27T13:05:53.876Z,75.90
2022-11-27T13:08:42.856Z,73.50
2022-11-27T13:11:11.597Z,72.30
2022-11-27T13:13:42.776Z,73.00
2022-11-27T13:16:15.611Z,72.50
2022-11-27T13:18:51.019Z,72.10
2022-11-27T13:21:24.712Z,69.80
2022-11-27T13:23:51.708Z,67.80
2022-11-27T13:26:35.737Z,61.10
2022-11-27T13:31:52.498Z,64.40
2022-11-27T13:34:23.751Z,67.20
2022-11-27T13:37:24.774Z,63.70
2022-11-27T13:39:59.702Z,60.40
2022-11-27T13:42:28.854Z,62.00
2022-11-27T13:45:11.093Z,61.70
2022-11-27T13:47:42.700Z,62.20
2022-11-27T13:50:18.396Z,62.10
2022-11-27T13:53:05.833Z,58.50
2022-11-27T13:55:37.681Z,58.80
2022-11-27T13:58:07.464Z,56.10
2022-11-27T14:00:40.055Z,53.90
2022-11-27T14:03:10.682Z,54.20
2022-11-27T14:05:40.719Z,53.60
2022-11-27T14:08:28.423Z,52.70
2022-11-27T14:11:00.793Z,51.50
2022-11-27T14:13:39.670Z,52.80
2022-11-27T14:16:29.100Z,51.90
2022-11-27T14:19:00.990Z,53.60
2022-11-27T14:21:39.358Z,52.50
2022-11-27T14:24:44.277Z,55.00
2022-11-27T14:27:19.987Z,53.20
2022-11-27T14:29:47.414Z,51.80
2022-11-27T14:32:15.992Z,51.70
2022-11-27T14:34:43.726Z,50.90
2022-11-27T14:37:25.406Z,50.60
2022-11-27T14:39:52.221Z,50.60
2022-11-27T14:42:29.595Z,50.20
2022-11-27T14:45:15.163Z,49.00
2022-11-27T14:47:51.679Z,48.20
2022-11-27T14:50:19.393Z,50.50
2022-11-27T14:52:51.316Z,50.70
2022-11-27T14:55:19.694Z,48.80
2022-11-27T14:57:48.058Z,49.40
2022-11-27T15:00:20.710Z,49.40
2022-11-27T15:02:49.263Z,50.40
2022-11-27T15:05:19.322Z,52.30
2022-11-27T15:07:50.812Z,50.50
2022-11-27T15:10:39.148Z,50.90
2022-11-27T15:13:08.056Z,51.30
2022-11-27T15:15:43.595Z,52.40
2022-11-27T15:18:20.733Z,51.30
2022-11-27T15:20:47.606Z,51.10
2022-11-27T15:23:21.414Z,50.40
2022-11-27T15:25:52.237Z,51.20
2022-11-27T15:28:39.670Z,51.10
2022-11-27T15:31:26.761Z,51.50
2022-11-27T15:34:01.883Z,50.40
2022-11-27T15:36:36.056Z,50.60
2022-11-27T15:39:18.518Z,52.00
2022-11-27T15:41:56.345Z,46.40
2022-11-27T15:44:24.353Z,50.70
2022-11-27T15:46:52.022Z,49.60
2022-11-27T15:49:19.729Z,49.40
2022-11-27T15:51:46.738Z,48.20
2022-11-27T15:54:13.647Z,50.90
2022-11-27T15:56:40.640Z,47.20
2022-11-27T15:59:08.732Z,49.20
2022-11-27T16:01:35.509Z,49.30
2022-11-27T16:04:02.494Z,52.10
2022-11-27T16:06:29.344Z,51.80
2022-11-27T16:08:57.185Z,54.80
2022-11-27T16:11:25.052Z,51.40
2022-11-27T16:13:51.817Z,51.70
2022-11-27T16:16:19.513Z,53.80
2022-11-27T16:18:46.282Z,55.50
2022-11-27T16:21:14.697Z,56.40
2022-11-27T16:23:41.764Z,53.70
2022-11-27T16:26:11.161Z,55.90
2022-11-27T16:28:37.972Z,56.20
2022-11-27T16:31:09.428Z,56.10
2022-11-27T16:33:36.289Z,59.00
2022-11-27T16:36:11.294Z,58.20
2022-11-27T16:38:40.536Z,60.70
2022-11-27T16:41:09.464Z,59.90
2022-11-27T16:43:39.119Z,62.70
2022-11-27T16:46:11.243Z,63.10
2022-11-27T16:48:39.902Z,64.80
2022-11-27T16:51:12.805Z,64.10
2022-11-27T16:53:41.832Z,61.50
2022-11-27T16:56:09.979Z,62.50
2022-11-27T16:58:38.890Z,63.60
2022-11-27T17:01:16.405Z,65.00
2022-11-27T17:03:43.615Z,66.90
2022-11-27T17:06:18.424Z,64.30
2022-11-27T17:08:45.299Z,66.30
2022-11-27T17:11:18.025Z,64.50
2022-11-27T17:13:45.667Z,66.40
2022-11-27T17:16:12.666Z,67.80
2022-11-27T17:18:40.977Z,69.20
2022-11-27T17:21:10.221Z,67.80
2022-11-27T17:23:37.847Z,66.20
2022-11-27T17:26:12.203Z,67.20
2022-11-27T17:28:39.036Z,65.70
2022-11-27T17:31:14.572Z,63.60
2022-11-27T17:33:41.408Z,64.30
2022-11-27T17:41:40.177Z,69.80
2022-11-27T17:44:08.170Z,68.60
2022-11-27T17:46:36.287Z,71.20
2022-11-27T17:49:04.842Z,70.00
2022-11-27T17:51:33.120Z,70.50
2022-11-27T17:54:01.241Z,72.00
2022-11-27T17:56:28.744Z,72.00
2022-11-27T17:58:56.034Z,71.20
2022-11-27T18:01:25.055Z,72.00
2022-11-27T18:03:55.060Z,71.10
2022-11-27T18:06:23.035Z,72.70
2022-11-27T18:08:52.837Z,72.60
2022-11-27T18:11:22.164Z,71.80
2022-11-27T18:13:52.638Z,70.20
2022-11-27T18:16:23.896Z,72.00
2022-11-27T18:18:51.288Z,73.80
2022-11-27T18:21:20.252Z,73.80
2022-11-27T18:24:22.127Z,72.80
2022-11-27T18:29:22.259Z,71.80
2022-11-27T18:31:50.928Z,70.20
2022-11-27T18:34:17.752Z,71.60
2022-11-27T18:36:45.804Z,72.30
2022-11-27T18:39:12.824Z,73.20
2022-11-27T18:41:39.627Z,71.80
2022-11-27T18:44:06.516Z,72.10
2022-11-27T18:46:33.646Z,72.10
2022-11-27T18:49:00.651Z,73.50
2022-11-27T18:51:27.387Z,74.40
2022-11-27T18:53:55.982Z,74.00
2022-11-27T18:56:24.950Z,74.80
2022-11-27T18:58:51.904Z,75.40
2022-11-27T19:01:22.059Z,74.90
2022-11-27T19:03:49.263Z,73.70
2022-11-27T19:06:18.021Z,74.50
2022-11-27T19:08:45.167Z,72.90
2022-11-27T19:11:14.841Z,69.60
2022-11-27T19:13:42.481Z,69.50
2022-11-27T19:16:34.119Z,70.90
2022-11-27T19:19:02.151Z,71.60
2022-11-27T19:21:31.051Z,69.40
2022-11-27T19:23:59.480Z,71.00
2022-11-27T19:26:28.808Z,71.70
2022-11-27T19:28:57.830Z,70.50
2022-11-27T19:31:25.869Z,71.10
2022-11-27T19:33:54.360Z,72.20
2022-11-27T19:36:22.463Z,68.90
2022-11-27T19:38:57.674Z,68.90
2022-11-27T19:41:25.354Z,71.60
2022-11-27T19:43:52.221Z,73.20
2022-11-27T19:46:24.865Z,70.70
2022-11-27T19:48:56.716Z,70.70
2022-11-27T19:51:24.858Z,71.20
2022-11-27T19:53:51.699Z,68.90
2022-11-27T19:56:18.920Z,69.30
2022-11-27T19:58:46.151Z,68.10
2022-11-27T20:01:18.276Z,70.20
2022-11-27T20:03:45.725Z,71.30
2022-11-27T20:06:18.105Z,72.10
2022-11-27T20:08:46.572Z,69.70
2022-11-27T20:11:15.724Z,71.10
2022-11-27T20:13:43.106Z,73.50
2022-11-27T20:16:11.970Z,69.90
2022-11-27T20:18:39.141Z,72.40
2022-11-27T20:21:07.447Z,70.70
2022-11-27T20:23:34.745Z,72.30
2022-11-27T20:26:07.797Z,70.30
2022-11-27T20:28:35.209Z,69.80
2022-11-27T20:31:03.518Z,71.10
2022-11-27T20:33:31.408Z,68.80
2022-11-27T20:35:58.357Z,69.70
2022-11-27T20:38:26.679Z,69.20
2022-11-27T20:40:53.794Z,71.10
2022-11-27T20:43:20.671Z,72.00
2022-11-27T20:45:51.183Z,71.40
2022-11-27T20:48:18.052Z,71.20
2022-11-27T20:50:49.833Z,74.50
2022-11-27T20:53:17.972Z,74.10
2022-11-27T20:55:44.840Z,71.10
2022-11-27T20:58:11.813Z,71.20
2022-11-27T21:00:40.397Z,70.80
2022-11-27T21:03:07.559Z,71.00
2022-11-27T21:05:34.574Z,73.10
2022-11-27T21:08:01.553Z,74.30
2022-11-27T21:10:28.491Z,70.60
2022-11-27T21:12:55.425Z,70.70
2022-11-27T21:15:22.220Z,70.40
2022-11-27T21:17:49.304Z,72.50
2022-11-27T21:20:16.206Z,71.90
2022-11-27T21:22:44.138Z,70.50
2022-11-27T21:25:10.957Z,71.70
2022-11-27T21:27:37.961Z,72.70
2022-11-27T21:30:06.099Z,71.30
2022-11-27T21:32:32.928Z,71.50
2022-11-27T21:34:59.821Z,70.80
2022-11-27T21:37:26.635Z,69.90
2022-11-27T21:39:53.730Z,66.10
2022-11-27T21:42:20.610Z,68.90
2022-11-27T21:44:47.487Z,67.70
2022-11-27T21:47:14.314Z,69.30
2022-11-27T21:49:41.414Z,70.60
2022-11-27T21:52:08.304Z,67.90
2022-11-27T21:54:36.256Z,66.60
2022-11-27T21:57:03.301Z,69.30
2022-11-27T21:59:30.159Z,67.80
2022-11-27T22:02:00.224Z,68.30
2022-11-27T22:04:27.088Z,69.40
2022-11-27T22:06:54.134Z,68.30
2022-11-27T22:09:21.091Z,68.30
2022-11-27T22:11:48.334Z,70.50
2022-11-27T22:14:15.986Z,70.80
2022-11-27T22:16:45.699Z,69.50
2022-11-27T22:19:14.441Z,69.30
2022-11-27T22:21:42.010Z,69.90
2022-11-27T22:24:13.563Z,70.60
2022-11-27T22:26:42.182Z,71.50
2022-11-27T22:29:09.442Z,71.20
2022-11-27T22:31:36.396Z,70.20
2022-11-27T22:34:03.389Z,67.30
2022-11-27T22:36:33.260Z,71.00
2022-11-27T22:39:05.263Z,71.30
2022-11-27T22:41:36.376Z,71.20
2022-11-27T22:44:07.671Z,69.10
2022-11-27T22:46:36.187Z,73.20
2022-11-27T22:49:06.727Z,70.00
2022-11-27T22:51:34.875Z,71.60
2022-11-27T22:54:03.563Z,73.80
2022-11-27T22:56:30.262Z,71.70
2022-11-27T22:59:24.826Z,71.70
2022-11-27T23:01:48.515Z,74.70
2022-11-27T23:04:15.616Z,70.40
2022-11-27T23:06:42.556Z,71.10
2022-11-27T23:09:09.548Z,71.30
2022-11-27T23:11:36.273Z,73.60
2022-11-27T23:14:03.518Z,72.90
2022-11-27T23:16:30.447Z,72.90
2022-11-27T23:18:57.391Z,74.30
2022-11-27T23:21:24.679Z,72.90
2022-11-27T23:23:51.852Z,74.90
2022-11-27T23:26:21.447Z,74.80
2022-11-27T23:28:52.740Z,74.30
2022-11-27T23:31:32.046Z,76.00
2022-11-27T23:34:01.944Z,75.20
2022-11-27T23:36:29.609Z,74.30
2022-11-27T23:38:56.779Z,75.30
2022-11-27T23:41:25.256Z,75.40
2022-11-27T23:43:53.386Z,75.00
2022-11-27T23:46:22.546Z,76.10
2022-11-27T23:48:49.478Z,76.60
2022-11-27T23:51:22.560Z,76.80
2022-11-27T23:53:50.380Z,77.00
2022-11-27T23:56:21.113Z,77.50
2022-11-27T23:58:48.104Z,78.50
